createdAt,value
2018-02-27T00:01:02.691Z,9.07
2018-02-27T00:03:30.623Z,12.00
2018-02-27T00:05:58.162Z,11.20
2018-02-27T00:08:25.700Z,13.27
2018-02-27T00:10:53.214Z,10.97
2018-02-27T00:13:21.139Z,13.70
2018-02-27T00:15:48.642Z,9.90
2018-02-27T00:18:16.566Z,11.27
2018-02-27T00:20:44.071Z,8.57
2018-02-27T00:23:11.995Z,10.53
2018-02-27T00:25:39.506Z,10.77
2018-02-27T00:28:07.038Z,8.40
2018-02-27T00:30:34.645Z,10.07
2018-02-27T00:33:02.178Z,11.13
2018-02-27T00:35:30.099Z,12.10
2018-02-27T00:37:57.627Z,12.70
2018-02-27T00:40:25.132Z,8.20
2018-02-27T00:42:52.657Z,12.13
2018-02-27T00:45:20.177Z,10.00
2018-02-27T00:47:47.720Z,8.87
2018-02-27T00:50:15.636Z,8.90
2018-02-27T00:52:43.168Z,7.80
2018-02-27T00:55:10.693Z,7.87
2018-02-27T00:57:38.220Z,8.13
2018-02-27T01:00:05.743Z,8.83
2018-02-27T01:02:33.295Z,8.90
2018-02-27T01:05:00.822Z,11.20
2018-02-27T01:07:28.344Z,9.70
2018-02-27T01:09:55.852Z,8.70
2018-02-27T01:12:23.768Z,9.13
2018-02-27T01:14:51.306Z,9.97
2018-02-27T01:17:18.817Z,8.23
2018-02-27T01:19:46.347Z,9.47
2018-02-27T01:22:13.855Z,8.27
2018-02-27T01:24:41.775Z,7.83
2018-02-27T01:27:09.284Z,7.43
2018-02-27T01:29:37.215Z,8.33
2018-02-27T01:32:04.744Z,9.17
2018-02-27T01:34:32.275Z,8.13
2018-02-27T01:36:59.792Z,8.50
2018-02-27T01:39:27.344Z,11.97
2018-02-27T01:41:54.850Z,6.90
2018-02-27T01:44:22.367Z,6.77
2018-02-27T01:46:49.895Z,8.60
2018-02-27T01:49:17.408Z,6.93
2018-02-27T01:51:45.347Z,7.77
2018-02-27T01:54:12.863Z,8.53
2018-02-27T01:56:40.403Z,6.80
2018-02-27T01:59:07.928Z,8.20
2018-02-27T02:01:35.458Z,8.07
2018-02-27T02:04:02.970Z,8.07
2018-02-27T02:06:30.902Z,6.73
2018-02-27T02:08:58.416Z,6.70
2018-02-27T02:11:25.962Z,7.33
2018-02-27T02:13:53.469Z,6.90
2018-02-27T02:16:20.989Z,5.50
2018-02-27T02:18:48.654Z,7.83
2018-02-27T02:21:16.168Z,6.80
2018-02-27T02:23:44.107Z,8.13
2018-02-27T02:26:11.629Z,9.37
2018-02-27T02:28:39.236Z,6.33
2018-02-27T02:31:06.752Z,6.97
2018-02-27T02:33:34.291Z,6.30
2018-02-27T02:36:01.805Z,6.70
2018-02-27T02:38:29.357Z,5.67
2018-02-27T02:40:56.867Z,5.87
2018-02-27T02:43:24.406Z,5.60
2018-02-27T02:45:52.313Z,7.10
2018-02-27T02:48:19.842Z,6.33
2018-02-27T02:50:47.747Z,4.47
2018-02-27T02:53:15.271Z,6.77
2018-02-27T02:55:42.800Z,5.20
2018-02-27T02:58:10.328Z,6.20
2018-02-27T03:00:37.882Z,5.07
2018-02-27T03:03:05.405Z,6.20
2018-02-27T03:05:32.935Z,4.67
2018-02-27T03:08:00.839Z,4.83
2018-02-27T03:10:28.365Z,6.13
2018-02-27T03:12:56.283Z,5.27
2018-02-27T03:15:23.815Z,6.10
2018-02-27T03:17:51.319Z,5.47
2018-02-27T03:20:18.856Z,5.70
2018-02-27T03:22:46.363Z,6.07
2018-02-27T03:25:14.283Z,6.67
2018-02-27T03:27:41.786Z,5.13
2018-02-27T03:30:09.721Z,6.27
2018-02-27T03:32:37.244Z,6.63
2018-02-27T03:35:04.775Z,5.00
2018-02-27T03:37:32.725Z,5.27
2018-02-27T03:40:00.231Z,5.93
2018-02-27T03:42:27.763Z,6.67
2018-02-27T03:44:55.671Z,6.17
2018-02-27T03:47:23.199Z,5.37
2018-02-27T03:49:50.727Z,7.37
2018-02-27T03:52:18.265Z,7.57
2018-02-27T03:54:45.769Z,5.77
2018-02-27T03:57:13.308Z,5.63
2018-02-27T03:59:41.227Z,5.73
2018-02-27T04:02:08.759Z,7.10
2018-02-27T04:04:36.288Z,5.70
2018-02-27T04:07:04.211Z,5.67
2018-02-27T04:09:31.743Z,6.40
2018-02-27T04:11:59.291Z,7.70
2018-02-27T04:14:26.811Z,7.10
2018-02-27T04:16:54.319Z,5.87
2018-02-27T04:19:21.869Z,7.33
2018-02-27T04:21:49.389Z,6.00
2018-02-27T04:24:16.925Z,6.10
2018-02-27T04:26:44.443Z,8.17
2018-02-27T04:29:12.003Z,6.63
2018-02-27T04:31:39.529Z,5.93
2018-02-27T04:34:07.467Z,6.10
2018-02-27T04:36:34.978Z,7.23
2018-02-27T04:39:02.516Z,6.77
2018-02-27T04:41:30.435Z,6.83
2018-02-27T04:43:57.963Z,5.67
2018-02-27T04:46:25.886Z,6.53
2018-02-27T04:48:53.587Z,6.77
2018-02-27T04:51:21.489Z,6.87
2018-02-27T04:53:49.015Z,6.47
2018-02-27T04:56:16.535Z,6.60
2018-02-27T04:58:44.064Z,6.63
2018-02-27T05:01:11.596Z,6.30
2018-02-27T05:03:39.106Z,7.43
2018-02-27T05:06:06.643Z,7.00
2018-02-27T05:08:34.152Z,6.43
2018-02-27T05:11:02.083Z,5.07
2018-02-27T05:13:29.602Z,6.87
2018-02-27T05:15:57.146Z,6.70
2018-02-27T05:18:24.650Z,5.23
2018-02-27T05:20:52.175Z,7.10
2018-02-27T05:23:19.725Z,4.90
2018-02-27T05:25:47.635Z,6.07
2018-02-27T05:28:15.156Z,6.03
2018-02-27T05:30:42.705Z,6.13
2018-02-27T05:33:10.221Z,6.00
2018-02-27T05:35:37.765Z,6.13
2018-02-27T05:38:05.295Z,6.83
2018-02-27T05:40:32.951Z,5.63
2018-02-27T05:43:00.484Z,7.63
2018-02-27T05:45:28.427Z,6.13
2018-02-27T05:47:55.946Z,6.23
2018-02-27T05:50:23.494Z,6.57
2018-02-27T05:52:51.050Z,7.63
2018-02-27T05:55:18.610Z,6.67
2018-02-27T05:57:46.147Z,5.87
2018-02-27T06:00:13.668Z,7.70
2018-02-27T06:02:41.246Z,6.57
2018-02-27T06:05:08.753Z,6.97
2018-02-27T06:07:36.276Z,7.23
2018-02-27T06:10:04.196Z,6.57
2018-02-27T06:12:31.730Z,6.23
2018-02-27T06:14:59.239Z,7.50
2018-02-27T06:17:27.183Z,6.67
2018-02-27T06:19:54.705Z,8.00
2018-02-27T06:22:22.239Z,6.93
2018-02-27T06:24:49.760Z,7.60
2018-02-27T06:27:17.304Z,6.50
2018-02-27T06:29:44.831Z,7.77
2018-02-27T06:32:12.363Z,7.67
2018-02-27T06:34:40.281Z,6.20
2018-02-27T06:37:07.815Z,7.53
2018-02-27T06:39:35.342Z,6.33
2018-02-27T06:42:03.286Z,6.80
2018-02-27T06:44:30.810Z,6.90
2018-02-27T06:46:58.352Z,7.27
2018-02-27T06:49:25.867Z,6.03
2018-02-27T06:51:53.405Z,7.87
2018-02-27T06:54:20.932Z,7.30
2018-02-27T06:56:48.475Z,7.60
2018-02-27T06:59:15.985Z,8.23
2018-02-27T07:01:43.663Z,6.57
2018-02-27T07:04:11.191Z,6.40
2018-02-27T07:06:38.711Z,6.53
2018-02-27T07:09:06.243Z,7.53
2018-02-27T07:11:34.223Z,8.40
2018-02-27T07:14:01.698Z,6.87
2018-02-27T07:16:29.213Z,6.23
2018-02-27T07:18:56.767Z,7.37
2018-02-27T07:21:24.276Z,7.70
2018-02-27T07:23:51.831Z,6.57
2018-02-27T07:26:19.352Z,7.90
2018-02-27T07:28:47.430Z,8.83
2018-02-27T07:31:15.352Z,8.07
2018-02-27T07:33:42.888Z,5.93
2018-02-27T07:36:10.425Z,7.67
2018-02-27T07:38:38.351Z,7.50
2018-02-27T07:41:05.868Z,7.83
2018-02-27T07:43:33.403Z,6.83
2018-02-27T07:46:00.931Z,7.23
2018-02-27T07:48:28.471Z,10.50
2018-02-27T07:50:55.987Z,8.13
2018-02-27T07:53:23.509Z,8.90
2018-02-27T07:55:51.035Z,8.13
2018-02-27T07:58:18.560Z,10.03
2018-02-27T08:00:46.094Z,7.17
2018-02-27T08:03:13.614Z,7.83
2018-02-27T08:05:41.160Z,7.27
2018-02-27T08:08:08.685Z,6.77
2018-02-27T08:10:36.794Z,8.93
2018-02-27T08:13:04.313Z,6.57
2018-02-27T08:15:32.247Z,11.00
2018-02-27T08:17:59.767Z,7.83
2018-02-27T08:20:27.342Z,7.80
2018-02-27T08:22:54.850Z,10.30
2018-02-27T08:25:22.792Z,10.33
2018-02-27T08:27:50.346Z,8.30
2018-02-27T08:30:17.898Z,9.33
2018-02-27T08:32:45.415Z,6.87
2018-02-27T08:35:12.946Z,9.90
2018-02-27T08:37:40.916Z,11.00
2018-02-27T08:40:08.411Z,8.10
2018-02-27T08:42:35.940Z,9.87
2018-02-27T08:45:03.849Z,8.40
2018-02-27T08:47:31.486Z,11.93
2018-02-27T08:49:59.153Z,10.87
2018-02-27T08:52:26.684Z,8.67
2018-02-27T08:54:54.589Z,9.60
2018-02-27T08:57:22.140Z,8.83
2018-02-27T08:59:49.672Z,11.43
2018-02-27T09:02:17.607Z,8.63
2018-02-27T09:04:45.125Z,8.83
2018-02-27T09:07:12.683Z,8.90
2018-02-27T09:09:40.218Z,13.07
2018-02-27T09:12:07.737Z,9.00
2018-02-27T09:14:35.279Z,11.33
2018-02-27T09:17:02.792Z,9.47
2018-02-27T09:19:30.328Z,9.43
2018-02-27T09:21:58.242Z,9.20
2018-02-27T09:24:25.781Z,8.90
2018-02-27T09:26:53.295Z,8.30
2018-02-27T09:29:20.837Z,10.17
2018-02-27T09:31:48.367Z,8.93
2018-02-27T09:34:15.892Z,9.53
2018-02-27T09:36:43.792Z,8.13
2018-02-27T09:39:11.314Z,9.70
2018-02-27T09:41:39.242Z,9.27
2018-02-27T09:44:07.191Z,9.93
2018-02-27T09:46:34.698Z,10.13
2018-02-27T09:49:02.234Z,9.30
2018-02-27T09:51:29.767Z,10.40
2018-02-27T09:53:57.388Z,9.93
2018-02-27T09:56:25.368Z,9.30
2018-02-27T09:58:52.849Z,9.50
2018-02-27T10:01:20.374Z,9.77
2018-02-27T10:03:48.270Z,8.83
2018-02-27T10:06:15.802Z,8.33
2018-02-27T10:08:43.402Z,9.90
2018-02-27T10:11:10.953Z,8.10
2018-02-27T10:13:38.463Z,9.00
2018-02-27T10:16:06.015Z,8.73
2018-02-27T10:18:33.538Z,9.83
2018-02-27T10:21:01.063Z,9.23
2018-02-27T10:23:28.570Z,8.33
2018-02-27T10:25:56.103Z,9.73
2018-02-27T10:28:23.618Z,9.47
2018-02-27T10:30:51.580Z,9.30
2018-02-27T10:33:19.495Z,11.23
2018-02-27T10:35:47.033Z,10.27
2018-02-27T10:38:14.551Z,9.73
2018-02-27T10:40:42.104Z,8.97
2018-02-27T10:43:09.611Z,11.07
2018-02-27T10:45:37.140Z,8.07
2018-02-27T10:48:05.067Z,11.83
2018-02-27T10:50:32.610Z,8.70
2018-02-27T10:53:00.120Z,9.50
2018-02-27T10:55:28.048Z,9.33
2018-02-27T10:57:55.550Z,8.90
2018-02-27T11:00:29.252Z,8.63
2018-02-27T11:02:57.180Z,11.43
2018-02-27T11:05:24.719Z,9.27
2018-02-27T11:07:52.235Z,9.57
2018-02-27T11:10:20.167Z,10.27
2018-02-27T11:12:47.671Z,13.07
2018-02-27T11:15:15.186Z,9.67
2018-02-27T11:17:42.711Z,8.23
2018-02-27T11:20:10.346Z,8.20
2018-02-27T11:22:37.867Z,11.33
2018-02-27T11:25:05.388Z,7.23
2018-02-27T11:27:32.937Z,8.13
2018-02-27T11:30:00.453Z,6.07
2018-02-27T11:32:28.421Z,8.73
2018-02-27T11:34:56.331Z,6.27
2018-02-27T11:37:23.867Z,6.87
2018-02-27T11:39:51.783Z,5.50
2018-02-27T11:42:19.423Z,5.77
2018-02-27T11:44:46.936Z,7.07
2018-02-27T11:47:14.868Z,8.07
2018-02-27T11:49:42.387Z,8.00
2018-02-27T11:52:09.924Z,7.30
2018-02-27T11:54:37.829Z,8.80
2018-02-27T11:57:06.316Z,5.93
2018-02-27T11:59:33.824Z,6.27
2018-02-27T12:02:01.741Z,6.70
2018-02-27T12:04:29.256Z,8.97
2018-02-27T12:06:57.210Z,6.07
2018-02-27T12:09:24.717Z,7.20
2018-02-27T12:11:52.251Z,7.90
2018-02-27T12:14:19.786Z,8.77
2018-02-27T12:16:47.735Z,6.57
2018-02-27T12:19:15.255Z,6.77
2018-02-27T12:21:42.785Z,7.27
2018-02-27T12:24:10.698Z,5.93
2018-02-27T12:26:38.240Z,6.07
2018-02-27T12:29:05.761Z,7.33
2018-02-27T12:31:33.680Z,6.87
2018-02-27T12:34:01.201Z,7.13
2018-02-27T12:36:28.727Z,5.73
2018-02-27T12:38:56.245Z,7.40
2018-02-27T12:41:23.787Z,5.77
2018-02-27T12:43:51.311Z,5.80
2018-02-27T12:46:19.235Z,7.13
2018-02-27T12:48:46.748Z,9.70
2018-02-27T12:51:14.694Z,8.40
2018-02-27T12:53:42.214Z,6.60
2018-02-27T12:56:09.843Z,7.20
2018-02-27T12:58:37.355Z,8.53
2018-02-27T13:01:04.897Z,7.20
2018-02-27T13:03:32.403Z,7.67
2018-02-27T13:06:00.336Z,7.40
2018-02-27T13:08:27.857Z,6.50
2018-02-27T13:10:55.387Z,7.20
2018-02-27T13:13:23.386Z,7.37
2018-02-27T13:15:50.916Z,7.00
2018-02-27T13:18:18.913Z,7.57
2018-02-27T13:20:46.470Z,6.67
2018-02-27T13:23:14.108Z,5.77
2018-02-27T13:25:42.007Z,6.10
2018-02-27T13:28:09.535Z,6.27
2018-02-27T13:30:37.060Z,5.67
2018-02-27T13:33:04.583Z,5.57
2018-02-27T13:35:32.097Z,5.30
2018-02-27T13:38:00.044Z,5.83
2018-02-27T13:40:27.569Z,5.13
2018-02-27T13:42:55.204Z,3.97
2018-02-27T13:45:22.688Z,6.13
2018-02-27T13:47:50.239Z,5.00
2018-02-27T13:50:17.782Z,5.20
2018-02-27T13:52:45.324Z,4.37
2018-02-27T13:55:12.845Z,3.47
2018-02-27T13:57:40.384Z,5.90
2018-02-27T14:00:07.900Z,5.43
2018-02-27T14:02:35.830Z,5.60
2018-02-27T14:05:03.346Z,4.87
2018-02-27T14:07:30.874Z,5.03
2018-02-27T14:09:58.798Z,6.73
2018-02-27T14:12:26.327Z,4.27
2018-02-27T14:14:53.855Z,5.93
2018-02-27T14:17:21.793Z,4.80
2018-02-27T14:19:49.754Z,4.57
2018-02-27T14:22:17.280Z,4.97
2018-02-27T14:24:44.795Z,5.63
2018-02-27T14:27:12.723Z,5.87
2018-02-27T14:29:40.235Z,4.77
2018-02-27T14:32:08.155Z,6.00
2018-02-27T14:34:35.686Z,6.60
2018-02-27T14:37:03.243Z,4.83
2018-02-27T14:39:30.776Z,6.20
2018-02-27T14:41:58.711Z,4.77
2018-02-27T14:44:26.284Z,5.73
2018-02-27T14:46:54.215Z,5.13
2018-02-27T14:49:21.724Z,5.70
2018-02-27T14:51:49.665Z,5.97
2018-02-27T14:54:17.488Z,6.93
2018-02-27T14:56:45.029Z,7.80
2018-02-27T14:59:12.552Z,5.23
2018-02-27T15:01:40.188Z,4.90
2018-02-27T15:04:07.706Z,4.93
2018-02-27T15:06:35.230Z,5.73
2018-02-27T15:09:02.755Z,6.07
2018-02-27T15:11:30.284Z,4.63
2018-02-27T15:13:57.856Z,7.60
2018-02-27T15:16:25.394Z,4.63
2018-02-27T15:18:52.897Z,6.73
2018-02-27T15:21:20.809Z,7.47
2018-02-27T15:23:48.740Z,6.17
2018-02-27T15:26:16.248Z,6.27
2018-02-27T15:28:43.780Z,6.13
2018-02-27T15:31:11.700Z,6.67
2018-02-27T15:33:39.237Z,6.80
2018-02-27T15:36:06.739Z,4.77
2018-02-27T15:38:34.283Z,6.83
2018-02-27T15:41:01.812Z,6.97
2018-02-27T15:43:29.355Z,7.67
2018-02-27T15:45:57.264Z,6.10
2018-02-27T15:48:24.876Z,6.90
2018-02-27T15:50:52.795Z,4.73
2018-02-27T15:53:20.348Z,7.17
2018-02-27T15:55:47.869Z,6.17
2018-02-27T15:58:15.419Z,6.53
2018-02-27T16:00:43.485Z,5.30
2018-02-27T16:03:11.425Z,6.27
2018-02-27T16:05:38.966Z,6.30
2018-02-27T16:08:06.611Z,5.37
2018-02-27T16:10:34.230Z,5.93
2018-02-27T16:13:02.184Z,5.90
2018-02-27T16:15:30.096Z,5.03
2018-02-27T16:17:57.639Z,4.57
2018-02-27T16:20:25.162Z,6.10
2018-02-27T16:22:52.695Z,5.13
2018-02-27T16:25:20.204Z,6.40
2018-02-27T16:27:47.746Z,4.50
2018-02-27T16:30:15.670Z,5.30
2018-02-27T16:32:43.203Z,5.20
2018-02-27T16:35:10.730Z,7.63
2018-02-27T16:37:38.658Z,6.00
2018-02-27T16:40:06.168Z,6.50
2018-02-27T16:42:33.719Z,7.83
2018-02-27T16:45:01.628Z,6.43
2018-02-27T16:47:29.169Z,5.33
2018-02-27T16:49:56.677Z,6.30
2018-02-27T16:52:24.293Z,5.03
2018-02-27T16:54:51.761Z,6.50
2018-02-27T16:57:19.274Z,7.77
2018-02-27T16:59:47.208Z,7.33
2018-02-27T17:02:14.725Z,6.40
2018-02-27T17:04:42.278Z,6.90
2018-02-27T17:07:09.824Z,7.53
2018-02-27T17:09:37.754Z,7.10
2018-02-27T17:12:05.275Z,8.57
2018-02-27T17:14:32.879Z,6.10
2018-02-27T17:17:00.395Z,7.13
2018-02-27T17:19:27.930Z,6.27
2018-02-27T17:21:55.446Z,9.30
2018-02-27T17:24:23.383Z,5.97
2018-02-27T17:26:56.730Z,8.47
2018-02-27T17:29:24.655Z,6.40
2018-02-27T17:31:52.179Z,7.80
2018-02-27T17:34:19.734Z,8.97
2018-02-27T17:36:47.261Z,7.00
2018-02-27T17:39:14.772Z,8.37
2018-02-27T17:41:42.294Z,7.37
2018-02-27T17:44:10.191Z,9.33
2018-02-27T17:46:37.729Z,9.77
2018-02-27T17:49:05.232Z,8.77
2018-02-27T17:51:32.770Z,9.40
2018-02-27T17:54:00.282Z,5.87
2018-02-27T17:56:28.265Z,8.80
2018-02-27T17:58:56.429Z,10.00
2018-02-27T18:01:24.411Z,8.67
2018-02-27T18:03:51.932Z,7.80
2018-02-27T18:06:19.476Z,8.37
2018-02-27T18:08:46.994Z,9.60
2018-02-27T18:11:16.540Z,7.13
2018-02-27T18:13:44.471Z,8.27
2018-02-27T18:16:12.011Z,6.63
2018-02-27T18:18:39.940Z,10.03
2018-02-27T18:21:07.483Z,7.17
2018-02-27T18:23:37.015Z,7.53
2018-02-27T18:26:04.930Z,8.20
2018-02-27T18:28:32.455Z,7.40
2018-02-27T18:31:02.751Z,9.77
2018-02-27T18:33:32.593Z,8.50
2018-02-27T18:36:02.498Z,9.97
2018-02-27T18:38:30.432Z,8.10
2018-02-27T18:40:57.950Z,10.43
2018-02-27T18:43:25.479Z,7.73
2018-02-27T18:45:53.406Z,10.87
2018-02-27T18:48:20.938Z,8.83
2018-02-27T18:50:48.447Z,7.63
2018-02-27T18:53:15.975Z,11.13
2018-02-27T18:55:43.491Z,11.30
2018-02-27T18:58:11.428Z,8.10
2018-02-27T19:00:38.955Z,10.10
2018-02-27T19:03:06.501Z,8.67
2018-02-27T19:05:34.043Z,10.60
2018-02-27T19:08:01.567Z,10.43
2018-02-27T19:10:29.093Z,10.83
2018-02-27T19:12:56.634Z,7.93
2018-02-27T19:15:24.138Z,9.27
2018-02-27T19:17:51.681Z,9.50
2018-02-27T19:20:19.205Z,10.43
2018-02-27T19:22:47.204Z,9.83
2018-02-27T19:25:15.419Z,11.83
2018-02-27T19:27:43.345Z,9.43
2018-02-27T19:30:10.886Z,14.20
2018-02-27T19:32:38.407Z,10.70
2018-02-27T19:35:06.365Z,11.97
2018-02-27T19:37:34.299Z,11.90
2018-02-27T19:40:01.838Z,9.00
2018-02-27T19:42:29.365Z,11.10
2018-02-27T19:44:56.907Z,9.60
2018-02-27T19:47:24.926Z,13.23
2018-02-27T19:49:52.472Z,12.97
2018-02-27T19:52:19.984Z,12.93
2018-02-27T19:54:47.928Z,13.43
2018-02-27T19:57:15.669Z,9.67
2018-02-27T19:59:43.227Z,12.03
2018-02-27T20:02:10.743Z,8.50
2018-02-27T20:04:38.681Z,11.43
2018-02-27T20:07:06.200Z,9.90
2018-02-27T20:09:34.773Z,9.63
2018-02-27T20:12:02.302Z,11.40
2018-02-27T20:14:31.135Z,9.40
2018-02-27T20:16:58.935Z,7.80
2018-02-27T20:19:26.532Z,10.57
2018-02-27T20:21:54.042Z,9.77
2018-02-27T20:24:21.980Z,10.17
2018-02-27T20:26:49.536Z,9.77
2018-02-27T20:29:22.057Z,9.87
2018-02-27T20:31:49.997Z,8.13
2018-02-27T20:34:17.539Z,10.43
2018-02-27T20:36:45.101Z,6.47
2018-02-27T20:39:18.388Z,12.07
2018-02-27T20:41:45.944Z,9.87
2018-02-27T20:44:13.479Z,11.03
2018-02-27T20:46:41.016Z,7.00
2018-02-27T20:49:08.543Z,9.33
2018-02-27T20:51:36.075Z,8.97
2018-02-27T20:54:03.633Z,7.93
2018-02-27T20:56:31.164Z,9.33
2018-02-27T20:58:59.126Z,8.10
2018-02-27T21:01:27.055Z,8.40
2018-02-27T21:03:54.611Z,9.13
2018-02-27T21:06:22.133Z,8.50
2018-02-27T21:08:49.676Z,8.27
2018-02-27T21:11:17.593Z,7.90
2018-02-27T21:13:45.193Z,9.50
2018-02-27T21:16:13.230Z,9.83
2018-02-27T21:18:40.768Z,9.07
2018-02-27T21:21:08.327Z,10.50
2018-02-27T21:23:35.841Z,7.47
2018-02-27T21:26:03.772Z,8.47
2018-02-27T21:28:31.288Z,9.83
2018-02-27T21:30:58.846Z,8.40
2018-02-27T21:33:26.368Z,9.43
2018-02-27T21:35:53.909Z,9.10
2018-02-27T21:38:21.852Z,9.90
2018-02-27T21:40:49.399Z,8.10
2018-02-27T21:43:16.906Z,8.73
2018-02-27T21:45:44.456Z,9.13
2018-02-27T21:48:12.002Z,8.43
2018-02-27T21:50:39.579Z,8.80
2018-02-27T21:53:07.112Z,8.53
2018-02-27T21:55:34.729Z,10.80
2018-02-27T21:58:02.216Z,8.13
2018-02-27T22:00:29.774Z,8.77
2018-02-27T22:02:57.306Z,7.87
2018-02-27T22:05:24.853Z,8.57
2018-02-27T22:07:52.760Z,7.27
2018-02-27T22:10:20.319Z,7.43
2018-02-27T22:12:47.839Z,7.97
2018-02-27T22:15:15.777Z,8.27
2018-02-27T22:17:43.348Z,7.33
2018-02-27T22:20:11.296Z,7.67
2018-02-27T22:22:38.846Z,8.97
2018-02-27T22:25:06.387Z,7.73
2018-02-27T22:27:33.911Z,7.33
2018-02-27T22:30:01.852Z,7.80
2018-02-27T22:32:29.927Z,9.10
2018-02-27T22:34:57.970Z,7.23
2018-02-27T22:37:25.475Z,6.93
2018-02-27T22:39:52.999Z,6.87
2018-02-27T22:42:20.541Z,5.70
2018-02-27T22:44:48.050Z,7.97
2018-02-27T22:47:15.635Z,7.47
2018-02-27T22:49:43.150Z,6.43
2018-02-27T22:52:11.080Z,7.23
2018-02-27T22:54:38.631Z,4.90
2018-02-27T22:57:06.162Z,7.17
2018-02-27T22:59:33.679Z,6.47
2018-02-27T23:02:01.223Z,6.03
2018-02-27T23:04:28.745Z,5.90
2018-02-27T23:06:56.351Z,6.63
2018-02-27T23:09:23.880Z,7.23
2018-02-27T23:11:51.416Z,6.23
2018-02-27T23:14:18.948Z,7.00
2018-02-27T23:16:46.883Z,6.00
2018-02-27T23:19:14.404Z,5.90
2018-02-27T23:21:41.984Z,6.33
2018-02-27T23:24:10.677Z,5.17
2018-02-27T23:26:38.748Z,7.23
2018-02-27T23:29:06.359Z,6.37
2018-02-27T23:31:33.958Z,6.03
2018-02-27T23:34:01.609Z,5.77
2018-02-27T23:36:29.126Z,6.07
2018-02-27T23:38:57.061Z,6.03
2018-02-27T23:41:24.580Z,6.90
2018-02-27T23:43:52.117Z,5.60
2018-02-27T23:46:19.647Z,7.00
2018-02-27T23:48:47.198Z,5.13
2018-02-27T23:51:14.720Z,6.73
2018-02-27T23:53:42.265Z,5.27
2018-02-27T23:56:09.778Z,8.30
2018-02-27T23:58:37.309Z,5.67
